sensor_id;sensor_type;location;lat;lon;timestamp;temperature;humidity
34061;DHT22;20336;-33.424;-70.638;2023-02-01T00:24:56;24.10;95.40
34061;DHT22;20336;-33.424;-70.638;2023-02-01T00:27:23;24.00;96.30
34061;DHT22;20336;-33.424;-70.638;2023-02-01T00:29:50;23.80;96.80
34061;DHT22;20336;-33.424;-70.638;2023-02-01T00:32:17;23.80;97.90
34061;DHT22;20336;-33.424;-70.638;2023-02-01T00:34:44;23.70;98.20
34061;DHT22;20336;-33.424;-70.638;2023-02-01T00:37:11;23.60;98.90
34061;DHT22;20336;-33.424;-70.638;2023-02-01T00:39:37;23.60;99.10
34061;DHT22;20336;-33.424;-70.638;2023-02-01T00:42:04;23.50;99.90
34061;DHT22;20336;-33.424;-70.638;2023-02-01T00:44:31;23.40;99.90
34061;DHT22;20336;-33.424;-70.638;2023-02-01T00:47:00;23.40;99.90
34061;DHT22;20336;-33.424;-70.638;2023-02-01T00:49:28;23.20;99.90
34061;DHT22;20336;-33.424;-70.638;2023-02-01T00:51:55;23.20;99.90
34061;DHT22;20336;-33.424;-70.638;2023-02-01T00:54:22;23.10;99.90
34061;DHT22;20336;-33.424;-70.638;2023-02-01T00:56:49;23.00;99.90
34061;DHT22;20336;-33.424;-70.638;2023-02-01T00:59:16;23.00;99.90
34061;DHT22;20336;-33.424;-70.638;2023-02-01T01:01:43;22.90;99.90
34061;DHT22;20336;-33.424;-70.638;2023-02-01T01:04:10;22.80;99.90
34061;DHT22;20336;-33.424;-70.638;2023-02-01T01:06:37;22.80;99.90
34061;DHT22;20336;-33.424;-70.638;2023-02-01T01:09:06;22.80;99.90
34061;DHT22;20336;-33.424;-70.638;2023-02-01T01:11:35;22.70;99.90
34061;DHT22;20336;-33.424;-70.638;2023-02-01T01:14:03;22.70;99.90
34061;DHT22;20336;-33.424;-70.638;2023-02-01T01:16:31;22.60;99.90
34061;DHT22;20336;-33.424;-70.638;2023-02-01T01:19:01;22.50;99.90
34061;DHT22;20336;-33.424;-70.638;2023-02-01T01:21:28;22.40;99.90
34061;DHT22;20336;-33.424;-70.638;2023-02-01T01:23:59;22.40;99.90
34061;DHT22;20336;-33.424;-70.638;2023-02-01T01:26:29;22.50;99.90
34061;DHT22;20336;-33.424;-70.638;2023-02-01T01:28:57;22.40;99.90
34061;DHT22;20336;-33.424;-70.638;2023-02-01T01:31:24;22.30;99.90
34061;DHT22;20336;-33.424;-70.638;2023-02-01T01:33:54;22.10;99.90
34061;DHT22;20336;-33.424;-70.638;2023-02-01T01:36:23;22.10;99.90
34061;DHT22;20336;-33.424;-70.638;2023-02-01T01:38:50;22.10;99.90
34061;DHT22;20336;-33.424;-70.638;2023-02-01T01:41:20;22.10;99.90
34061;DHT22;20336;-33.424;-70.638;2023-02-01T01:43:56;22.00;99.90
34061;DHT22;20336;-33.424;-70.638;2023-02-01T01:46:29;21.90;99.90
34061;DHT22;20336;-33.424;-70.638;2023-02-01T01:51:37;21.80;99.90
34061;DHT22;20336;-33.424;-70.638;2023-02-01T01:54:13;21.70;99.90
34061;DHT22;20336;-33.424;-70.638;2023-02-01T01:56:45;21.70;99.90
34061;DHT22;20336;-33.424;-70.638;2023-02-01T01:59:15;21.70;99.90
34061;DHT22;20336;-33.424;-70.638;2023-02-01T02:01:42;21.70;99.90
34061;DHT22;20336;-33.424;-70.638;2023-02-01T02:04:10;21.60;99.90
34061;DHT22;20336;-33.424;-70.638;2023-02-01T02:06:47;21.50;99.90
34061;DHT22;20336;-33.424;-70.638;2023-02-01T02:09:16;21.40;99.90
34061;DHT22;20336;-33.424;-70.638;2023-02-01T02:11:43;21.40;99.90
34061;DHT22;20336;-33.424;-70.638;2023-02-01T02:14:12;21.20;99.90
34061;DHT22;20336;-33.424;-70.638;2023-02-01T02:27:51;21.10;99.90
34061;DHT22;20336;-33.424;-70.638;2023-02-01T02:39:05;21.00;99.90
34061;DHT22;20336;-33.424;-70.638;2023-02-01T02:44:47;20.90;99.90
34061;DHT22;20336;-33.424;-70.638;2023-02-01T02:53:30;20.80;99.90
34061;DHT22;20336;-33.424;-70.638;2023-02-01T02:56:18;20.70;99.90
34061;DHT22;20336;-33.424;-70.638;2023-02-01T02:59:07;20.60;99.90
34061;DHT22;20336;-33.424;-70.638;2023-02-01T03:01:54;20.50;99.90
34061;DHT22;20336;-33.424;-70.638;2023-02-01T03:04:39;20.50;99.90
34061;DHT22;20336;-33.424;-70.638;2023-02-01T03:07:46;20.50;99.90
34061;DHT22;20336;-33.424;-70.638;2023-02-01T03:10:07;20.50;99.90
34061;DHT22;20336;-33.424;-70.638;2023-02-01T03:12:38;20.40;99.90
34061;DHT22;20336;-33.424;-70.638;2023-02-01T03:21:18;20.40;99.90
34061;DHT22;20336;-33.424;-70.638;2023-02-01T03:23:47;20.40;99.90
34061;DHT22;20336;-33.424;-70.638;2023-02-01T03:26:15;20.30;99.90
34061;DHT22;20336;-33.424;-70.638;2023-02-01T03:28:52;20.30;99.90
34061;DHT22;20336;-33.424;-70.638;2023-02-01T03:31:22;20.30;99.90
34061;DHT22;20336;-33.424;-70.638;2023-02-01T03:33:49;20.20;99.90
34061;DHT22;20336;-33.424;-70.638;2023-02-01T03:41:44;20.40;99.90
34061;DHT22;20336;-33.424;-70.638;2023-02-01T03:44:22;20.30;99.90
34061;DHT22;20336;-33.424;-70.638;2023-02-01T03:49:40;20.20;99.90
34061;DHT22;20336;-33.424;-70.638;2023-02-01T03:52:16;20.10;99.90
34061;DHT22;20336;-33.424;-70.638;2023-02-01T03:54:47;20.00;99.90
34061;DHT22;20336;-33.424;-70.638;2023-02-01T03:57:25;20.00;99.90
34061;DHT22;20336;-33.424;-70.638;2023-02-01T03:59:53;20.10;99.90
34061;DHT22;20336;-33.424;-70.638;2023-02-01T04:02:20;20.10;99.90
34061;DHT22;20336;-33.424;-70.638;2023-02-01T04:04:46;20.00;99.90
34061;DHT22;20336;-33.424;-70.638;2023-02-01T04:07:13;20.00;99.90
34061;DHT22;20336;-33.424;-70.638;2023-02-01T04:09:40;20.10;99.90
34061;DHT22;20336;-33.424;-70.638;2023-02-01T04:12:07;20.10;99.90
34061;DHT22;20336;-33.424;-70.638;2023-02-01T04:14:34;20.00;99.90
34061;DHT22;20336;-33.424;-70.638;2023-02-01T04:17:00;20.00;99.90
34061;DHT22;20336;-33.424;-70.638;2023-02-01T04:19:27;20.10;99.90
34061;DHT22;20336;-33.424;-70.638;2023-02-01T04:21:54;20.00;99.90
34061;DHT22;20336;-33.424;-70.638;2023-02-01T04:24:21;20.00;99.90
34061;DHT22;20336;-33.424;-70.638;2023-02-01T04:26:48;19.90;99.90
34061;DHT22;20336;-33.424;-70.638;2023-02-01T04:29:15;19.90;99.90
34061;DHT22;20336;-33.424;-70.638;2023-02-01T04:31:41;19.90;99.90
34061;DHT22;20336;-33.424;-70.638;2023-02-01T04:34:08;19.80;99.90
34061;DHT22;20336;-33.424;-70.638;2023-02-01T04:36:35;19.90;99.90
34061;DHT22;20336;-33.424;-70.638;2023-02-01T04:39:02;19.80;99.90
34061;DHT22;20336;-33.424;-70.638;2023-02-01T04:41:29;19.80;99.90
34061;DHT22;20336;-33.424;-70.638;2023-02-01T04:43:56;19.80;99.90
34061;DHT22;20336;-33.424;-70.638;2023-02-01T04:46:23;19.70;99.90
34061;DHT22;20336;-33.424;-70.638;2023-02-01T04:48:50;19.70;99.90
34061;DHT22;20336;-33.424;-70.638;2023-02-01T04:51:16;19.60;99.90
34061;DHT22;20336;-33.424;-70.638;2023-02-01T04:53:44;19.60;99.90
34061;DHT22;20336;-33.424;-70.638;2023-02-01T04:56:11;19.60;99.90
34061;DHT22;20336;-33.424;-70.638;2023-02-01T04:58:38;19.60;99.90
34061;DHT22;20336;-33.424;-70.638;2023-02-01T05:01:06;19.60;99.90
34061;DHT22;20336;-33.424;-70.638;2023-02-01T05:03:34;19.50;99.90
34061;DHT22;20336;-33.424;-70.638;2023-02-01T05:06:01;19.50;99.90
34061;DHT22;20336;-33.424;-70.638;2023-02-01T05:08:30;19.50;99.90
34061;DHT22;20336;-33.424;-70.638;2023-02-01T05:10:57;19.50;99.90
34061;DHT22;20336;-33.424;-70.638;2023-02-01T05:13:25;19.50;99.90
34061;DHT22;20336;-33.424;-70.638;2023-02-01T05:16:10;19.50;99.90
34061;DHT22;20336;-33.424;-70.638;2023-02-01T05:18:37;19.40;99.90
34061;DHT22;20336;-33.424;-70.638;2023-02-01T05:21:04;19.30;99.90
34061;DHT22;20336;-33.424;-70.638;2023-02-01T05:23:31;19.40;99.90
34061;DHT22;20336;-33.424;-70.638;2023-02-01T05:26:01;19.30;99.90
34061;DHT22;20336;-33.424;-70.638;2023-02-01T05:28:29;19.20;99.90
34061;DHT22;20336;-33.424;-70.638;2023-02-01T05:30:56;19.10;99.90
34061;DHT22;20336;-33.424;-70.638;2023-02-01T05:33:23;19.10;99.90
34061;DHT22;20336;-33.424;-70.638;2023-02-01T05:35:50;19.10;99.90
34061;DHT22;20336;-33.424;-70.638;2023-02-01T05:38:17;19.00;99.90
34061;DHT22;20336;-33.424;-70.638;2023-02-01T05:40:44;19.00;99.90
34061;DHT22;20336;-33.424;-70.638;2023-02-01T05:43:15;19.00;99.90
34061;DHT22;20336;-33.424;-70.638;2023-02-01T05:45:42;19.00;99.90
34061;DHT22;20336;-33.424;-70.638;2023-02-01T05:50:36;18.80;99.90
34061;DHT22;20336;-33.424;-70.638;2023-02-01T05:53:03;18.80;99.90
34061;DHT22;20336;-33.424;-70.638;2023-02-01T05:55:30;18.80;99.90
34061;DHT22;20336;-33.424;-70.638;2023-02-01T05:57:57;18.90;99.90
34061;DHT22;20336;-33.424;-70.638;2023-02-01T06:00:24;18.90;99.90
34061;DHT22;20336;-33.424;-70.638;2023-02-01T06:02:51;18.80;99.90
34061;DHT22;20336;-33.424;-70.638;2023-02-01T06:05:18;18.80;99.90
34061;DHT22;20336;-33.424;-70.638;2023-02-01T06:07:45;18.80;99.90
34061;DHT22;20336;-33.424;-70.638;2023-02-01T06:10:12;18.70;99.90
34061;DHT22;20336;-33.424;-70.638;2023-02-01T06:12:39;18.70;99.90
34061;DHT22;20336;-33.424;-70.638;2023-02-01T06:15:07;18.70;99.90
34061;DHT22;20336;-33.424;-70.638;2023-02-01T06:17:34;18.70;99.90
34061;DHT22;20336;-33.424;-70.638;2023-02-01T06:20:00;18.70;99.90
34061;DHT22;20336;-33.424;-70.638;2023-02-01T06:22:27;18.60;99.90
34061;DHT22;20336;-33.424;-70.638;2023-02-01T06:24:54;18.60;99.90
34061;DHT22;20336;-33.424;-70.638;2023-02-01T06:27:21;18.50;99.90
34061;DHT22;20336;-33.424;-70.638;2023-02-01T06:29:48;18.50;99.90
34061;DHT22;20336;-33.424;-70.638;2023-02-01T06:32:14;18.40;99.90
34061;DHT22;20336;-33.424;-70.638;2023-02-01T06:34:43;18.40;99.90
34061;DHT22;20336;-33.424;-70.638;2023-02-01T06:37:10;18.40;99.90
34061;DHT22;20336;-33.424;-70.638;2023-02-01T06:39:37;18.40;99.90
34061;DHT22;20336;-33.424;-70.638;2023-02-01T06:42:04;18.40;99.90
34061;DHT22;20336;-33.424;-70.638;2023-02-01T06:44:31;18.40;99.90
34061;DHT22;20336;-33.424;-70.638;2023-02-01T06:46:58;18.30;99.90
34061;DHT22;20336;-33.424;-70.638;2023-02-01T06:49:25;18.20;99.90
34061;DHT22;20336;-33.424;-70.638;2023-02-01T06:51:51;18.20;99.90
34061;DHT22;20336;-33.424;-70.638;2023-02-01T06:54:18;18.20;99.90
34061;DHT22;20336;-33.424;-70.638;2023-02-01T06:56:45;18.20;99.90
34061;DHT22;20336;-33.424;-70.638;2023-02-01T06:59:12;18.20;99.90
34061;DHT22;20336;-33.424;-70.638;2023-02-01T07:01:39;18.20;99.90
34061;DHT22;20336;-33.424;-70.638;2023-02-01T07:04:06;18.10;99.90
34061;DHT22;20336;-33.424;-70.638;2023-02-01T07:06:33;18.10;99.90
34061;DHT22;20336;-33.424;-70.638;2023-02-01T07:09:00;18.00;99.90
34061;DHT22;20336;-33.424;-70.638;2023-02-01T07:11:27;18.00;99.90
34061;DHT22;20336;-33.424;-70.638;2023-02-01T07:13:54;18.00;99.90
34061;DHT22;20336;-33.424;-70.638;2023-02-01T07:16:21;17.90;99.90
34061;DHT22;20336;-33.424;-70.638;2023-02-01T07:18:50;17.90;99.90
34061;DHT22;20336;-33.424;-70.638;2023-02-01T07:21:18;17.80;99.90
34061;DHT22;20336;-33.424;-70.638;2023-02-01T07:23:45;17.80;99.90
34061;DHT22;20336;-33.424;-70.638;2023-02-01T07:26:13;17.80;99.90
34061;DHT22;20336;-33.424;-70.638;2023-02-01T07:28:41;17.80;99.90
34061;DHT22;20336;-33.424;-70.638;2023-02-01T07:31:11;17.80;99.90
34061;DHT22;20336;-33.424;-70.638;2023-02-01T07:33:39;17.80;99.90
34061;DHT22;20336;-33.424;-70.638;2023-02-01T07:36:08;17.80;99.90
34061;DHT22;20336;-33.424;-70.638;2023-02-01T07:38:36;17.80;99.90
34061;DHT22;20336;-33.424;-70.638;2023-02-01T07:41:04;17.80;99.90
34061;DHT22;20336;-33.424;-70.638;2023-02-01T07:43:32;17.70;99.90
34061;DHT22;20336;-33.424;-70.638;2023-02-01T07:45:59;17.70;99.90
34061;DHT22;20336;-33.424;-70.638;2023-02-01T07:48:27;17.70;99.90
34061;DHT22;20336;-33.424;-70.638;2023-02-01T07:51:11;17.70;99.90
34061;DHT22;20336;-33.424;-70.638;2023-02-01T07:53:39;17.70;99.90
34061;DHT22;20336;-33.424;-70.638;2023-02-01T07:56:11;17.70;99.90
34061;DHT22;20336;-33.424;-70.638;2023-02-01T07:58:39;17.60;99.90
34061;DHT22;20336;-33.424;-70.638;2023-02-01T08:01:10;17.50;99.90
34061;DHT22;20336;-33.424;-70.638;2023-02-01T08:04:04;17.50;99.90
34061;DHT22;20336;-33.424;-70.638;2023-02-01T08:06:33;17.50;99.90
34061;DHT22;20336;-33.424;-70.638;2023-02-01T08:09:03;17.50;99.90
34061;DHT22;20336;-33.424;-70.638;2023-02-01T08:11:31;17.50;99.90
34061;DHT22;20336;-33.424;-70.638;2023-02-01T08:13:58;17.40;99.90
34061;DHT22;20336;-33.424;-70.638;2023-02-01T08:16:25;17.50;99.90
34061;DHT22;20336;-33.424;-70.638;2023-02-01T08:18:53;17.50;99.90
34061;DHT22;20336;-33.424;-70.638;2023-02-01T08:21:22;17.40;99.90
34061;DHT22;20336;-33.424;-70.638;2023-02-01T08:23:50;17.40;99.90
34061;DHT22;20336;-33.424;-70.638;2023-02-01T08:26:22;17.30;99.90
34061;DHT22;20336;-33.424;-70.638;2023-02-01T08:28:55;17.40;99.90
34061;DHT22;20336;-33.424;-70.638;2023-02-01T08:31:24;17.50;99.90
34061;DHT22;20336;-33.424;-70.638;2023-02-01T08:33:54;17.50;99.90
34061;DHT22;20336;-33.424;-70.638;2023-02-01T08:36:22;17.40;99.90
34061;DHT22;20336;-33.424;-70.638;2023-02-01T08:38:53;17.30;99.90
34061;DHT22;20336;-33.424;-70.638;2023-02-01T08:41:28;17.20;99.90
34061;DHT22;20336;-33.424;-70.638;2023-02-01T08:43:56;17.20;99.90
34061;DHT22;20336;-33.424;-70.638;2023-02-01T08:46:23;17.00;99.90
34061;DHT22;20336;-33.424;-70.638;2023-02-01T08:48:51;17.00;99.90
34061;DHT22;20336;-33.424;-70.638;2023-02-01T08:51:20;17.10;99.90
34061;DHT22;20336;-33.424;-70.638;2023-02-01T08:53:47;17.10;99.90
34061;DHT22;20336;-33.424;-70.638;2023-02-01T08:56:16;17.10;99.90
34061;DHT22;20336;-33.424;-70.638;2023-02-01T08:58:43;17.20;99.90
34061;DHT22;20336;-33.424;-70.638;2023-02-01T09:01:15;17.10;99.90
34061;DHT22;20336;-33.424;-70.638;2023-02-01T09:03:43;17.10;99.90
34061;DHT22;20336;-33.424;-70.638;2023-02-01T09:06:12;17.10;99.90
34061;DHT22;20336;-33.424;-70.638;2023-02-01T09:08:40;17.00;99.90
34061;DHT22;20336;-33.424;-70.638;2023-02-01T09:11:13;17.00;99.90
34061;DHT22;20336;-33.424;-70.638;2023-02-01T09:13:40;17.00;99.90
34061;DHT22;20336;-33.424;-70.638;2023-02-01T09:16:08;17.00;99.90
34061;DHT22;20336;-33.424;-70.638;2023-02-01T09:18:35;17.00;99.90
34061;DHT22;20336;-33.424;-70.638;2023-02-01T09:21:08;17.00;99.90
34061;DHT22;20336;-33.424;-70.638;2023-02-01T09:23:35;17.00;99.90
34061;DHT22;20336;-33.424;-70.638;2023-02-01T09:26:03;17.00;99.90
34061;DHT22;20336;-33.424;-70.638;2023-02-01T09:28:31;16.90;99.90
34061;DHT22;20336;-33.424;-70.638;2023-02-01T09:30:59;16.90;99.90
34061;DHT22;20336;-33.424;-70.638;2023-02-01T09:33:27;17.00;99.90
34061;DHT22;20336;-33.424;-70.638;2023-02-01T09:35:59;16.90;99.90
34061;DHT22;20336;-33.424;-70.638;2023-02-01T09:38:26;16.80;99.90
34061;DHT22;20336;-33.424;-70.638;2023-02-01T09:40:54;16.80;99.90
34061;DHT22;20336;-33.424;-70.638;2023-02-01T09:43:53;16.80;99.90
34061;DHT22;20336;-33.424;-70.638;2023-02-01T09:46:28;16.70;99.90
34061;DHT22;20336;-33.424;-70.638;2023-02-01T09:48:59;16.80;99.90
34061;DHT22;20336;-33.424;-70.638;2023-02-01T09:51:43;16.80;99.90
34061;DHT22;20336;-33.424;-70.638;2023-02-01T09:54:16;16.80;99.90
34061;DHT22;20336;-33.424;-70.638;2023-02-01T09:56:53;16.80;99.90
34061;DHT22;20336;-33.424;-70.638;2023-02-01T09:59:43;16.70;99.90
34061;DHT22;20336;-33.424;-70.638;2023-02-01T10:02:21;16.70;99.90
34061;DHT22;20336;-33.424;-70.638;2023-02-01T10:04:49;16.70;99.90
34061;DHT22;20336;-33.424;-70.638;2023-02-01T10:07:40;16.70;99.90
34061;DHT22;20336;-33.424;-70.638;2023-02-01T10:10:34;16.70;99.90
34061;DHT22;20336;-33.424;-70.638;2023-02-01T10:16:55;16.70;99.90
34061;DHT22;20336;-33.424;-70.638;2023-02-01T10:21:45;16.70;99.90
34061;DHT22;20336;-33.424;-70.638;2023-02-01T10:24:20;16.70;99.90
34061;DHT22;20336;-33.424;-70.638;2023-02-01T10:26:59;16.80;99.90
34061;DHT22;20336;-33.424;-70.638;2023-02-01T10:29:36;16.80;99.90
34061;DHT22;20336;-33.424;-70.638;2023-02-01T10:32:18;16.90;99.90
34061;DHT22;20336;-33.424;-70.638;2023-02-01T10:34:51;16.90;99.90
34061;DHT22;20336;-33.424;-70.638;2023-02-01T10:37:29;17.00;99.90
34061;DHT22;20336;-33.424;-70.638;2023-02-01T10:39:59;17.10;99.90
34061;DHT22;20336;-33.424;-70.638;2023-02-01T10:42:28;17.30;99.90
34061;DHT22;20336;-33.424;-70.638;2023-02-01T10:45:00;17.20;99.90
34061;DHT22;20336;-33.424;-70.638;2023-02-01T10:47:28;17.20;99.90
34061;DHT22;20336;-33.424;-70.638;2023-02-01T10:52:40;17.20;99.90
34061;DHT22;20336;-33.424;-70.638;2023-02-01T10:55:29;17.20;99.90
34061;DHT22;20336;-33.424;-70.638;2023-02-01T10:57:58;17.20;99.90
34061;DHT22;20336;-33.424;-70.638;2023-02-01T11:00:26;17.20;99.90
34061;DHT22;20336;-33.424;-70.638;2023-02-01T11:02:54;17.30;99.90
34061;DHT22;20336;-33.424;-70.638;2023-02-01T11:05:22;17.40;99.90
34061;DHT22;20336;-33.424;-70.638;2023-02-01T11:07:53;17.30;99.90
34061;DHT22;20336;-33.424;-70.638;2023-02-01T11:10:38;17.40;99.90
34061;DHT22;20336;-33.424;-70.638;2023-02-01T11:13:14;17.40;99.90
34061;DHT22;20336;-33.424;-70.638;2023-02-01T11:15:46;17.30;99.90
34061;DHT22;20336;-33.424;-70.638;2023-02-01T11:18:18;17.30;99.90
34061;DHT22;20336;-33.424;-70.638;2023-02-01T11:20:46;17.30;99.90
34061;DHT22;20336;-33.424;-70.638;2023-02-01T11:23:26;17.40;99.90
34061;DHT22;20336;-33.424;-70.638;2023-02-01T11:26:07;17.40;99.90
34061;DHT22;20336;-33.424;-70.638;2023-02-01T11:28:39;17.50;99.90
34061;DHT22;20336;-33.424;-70.638;2023-02-01T11:31:12;17.50;99.90
34061;DHT22;20336;-33.424;-70.638;2023-02-01T11:33:48;17.60;99.90
34061;DHT22;20336;-33.424;-70.638;2023-02-01T11:36:17;17.60;99.90
34061;DHT22;20336;-33.424;-70.638;2023-02-01T11:38:54;17.70;99.90
34061;DHT22;20336;-33.424;-70.638;2023-02-01T11:41:24;17.70;99.90
34061;DHT22;20336;-33.424;-70.638;2023-02-01T11:43:57;17.70;99.90
34061;DHT22;20336;-33.424;-70.638;2023-02-01T11:46:33;17.80;99.90
34061;DHT22;20336;-33.424;-70.638;2023-02-01T11:49:26;17.80;99.90
34061;DHT22;20336;-33.424;-70.638;2023-02-01T12:06:12;18.20;99.90
34061;DHT22;20336;-33.424;-70.638;2023-02-01T12:11:20;18.40;99.90
34061;DHT22;20336;-33.424;-70.638;2023-02-01T12:19:48;18.60;99.90
34061;DHT22;20336;-33.424;-70.638;2023-02-01T12:22:41;18.70;99.90
34061;DHT22;20336;-33.424;-70.638;2023-02-01T12:27:54;18.80;99.90
34061;DHT22;20336;-33.424;-70.638;2023-02-01T12:33:51;19.10;99.90
34061;DHT22;20336;-33.424;-70.638;2023-02-01T12:44:50;19.80;99.90
34061;DHT22;20336;-33.424;-70.638;2023-02-01T12:47:32;20.00;99.90
34061;DHT22;20336;-33.424;-70.638;2023-02-01T12:50:01;20.20;99.90
34061;DHT22;20336;-33.424;-70.638;2023-02-01T12:52:49;20.40;99.90
34061;DHT22;20336;-33.424;-70.638;2023-02-01T12:55:36;20.60;99.90
34061;DHT22;20336;-33.424;-70.638;2023-02-01T12:58:41;20.70;99.90
34061;DHT22;20336;-33.424;-70.638;2023-02-01T13:01:41;21.10;99.90
34061;DHT22;20336;-33.424;-70.638;2023-02-01T13:04:18;21.50;99.90
34061;DHT22;20336;-33.424;-70.638;2023-02-01T13:12:09;22.50;99.90
34061;DHT22;20336;-33.424;-70.638;2023-02-01T13:15:00;22.60;99.90
34061;DHT22;20336;-33.424;-70.638;2023-02-01T13:17:31;23.00;99.90
34061;DHT22;20336;-33.424;-70.638;2023-02-01T13:20:21;23.20;99.90
34061;DHT22;20336;-33.424;-70.638;2023-02-01T13:25:50;23.60;99.90
34061;DHT22;20336;-33.424;-70.638;2023-02-01T13:37:26;24.50;99.90
34061;DHT22;20336;-33.424;-70.638;2023-02-01T13:40:17;24.90;99.90
34061;DHT22;20336;-33.424;-70.638;2023-02-01T13:42:57;25.30;99.90
34061;DHT22;20336;-33.424;-70.638;2023-02-01T13:45:41;25.60;99.90
34061;DHT22;20336;-33.424;-70.638;2023-02-01T13:48:23;25.30;99.90
34061;DHT22;20336;-33.424;-70.638;2023-02-01T13:50:54;25.20;99.90
34061;DHT22;20336;-33.424;-70.638;2023-02-01T13:53:29;25.10;99.90
34061;DHT22;20336;-33.424;-70.638;2023-02-01T13:56:00;25.20;99.90
34061;DHT22;20336;-33.424;-70.638;2023-02-01T13:58:38;25.70;99.90
34061;DHT22;20336;-33.424;-70.638;2023-02-01T14:01:31;26.00;99.90
34061;DHT22;20336;-33.424;-70.638;2023-02-01T14:04:01;26.30;99.90
34061;DHT22;20336;-33.424;-70.638;2023-02-01T14:19:30;27.10;99.90
34061;DHT22;20336;-33.424;-70.638;2023-02-01T14:22:00;27.00;99.90
34061;DHT22;20336;-33.424;-70.638;2023-02-01T14:24:35;27.10;99.90
34061;DHT22;20336;-33.424;-70.638;2023-02-01T14:27:24;27.10;99.90
34061;DHT22;20336;-33.424;-70.638;2023-02-01T15:28:21;30.80;99.90
34061;DHT22;20336;-33.424;-70.638;2023-02-01T15:31:03;30.70;99.90
34061;DHT22;20336;-33.424;-70.638;2023-02-01T15:33:31;30.20;99.90
34061;DHT22;20336;-33.424;-70.638;2023-02-01T15:36:16;30.10;99.90
34061;DHT22;20336;-33.424;-70.638;2023-02-01T15:38:44;31.20;99.90
34061;DHT22;20336;-33.424;-70.638;2023-02-01T15:46:40;31.70;99.90
34061;DHT22;20336;-33.424;-70.638;2023-02-01T15:51:54;32.10;99.90
34061;DHT22;20336;-33.424;-70.638;2023-02-01T15:54:47;32.10;99.90
34061;DHT22;20336;-33.424;-70.638;2023-02-01T15:57:27;32.20;99.90
34061;DHT22;20336;-33.424;-70.638;2023-02-01T16:00:07;32.30;99.90
34061;DHT22;20336;-33.424;-70.638;2023-02-01T16:02:37;32.40;99.90
34061;DHT22;20336;-33.424;-70.638;2023-02-01T16:05:38;33.00;99.90
34061;DHT22;20336;-33.424;-70.638;2023-02-01T16:08:17;33.60;99.20
34061;DHT22;20336;-33.424;-70.638;2023-02-01T16:10:50;33.60;98.50
34061;DHT22;20336;-33.424;-70.638;2023-02-01T16:13:18;33.30;98.40
34061;DHT22;20336;-33.424;-70.638;2023-02-01T16:15:47;32.90;98.50
34061;DHT22;20336;-33.424;-70.638;2023-02-01T16:18:15;32.80;97.70
34061;DHT22;20336;-33.424;-70.638;2023-02-01T16:20:42;33.10;98.30
34061;DHT22;20336;-33.424;-70.638;2023-02-01T16:23:10;33.10;97.90
34061;DHT22;20336;-33.424;-70.638;2023-02-01T16:25:37;33.10;97.60
34061;DHT22;20336;-33.424;-70.638;2023-02-01T16:28:05;33.70;97.50
34061;DHT22;20336;-33.424;-70.638;2023-02-01T16:30:32;34.00;96.40
34061;DHT22;20336;-33.424;-70.638;2023-02-01T16:33:00;33.30;95.90
34061;DHT22;20336;-33.424;-70.638;2023-02-01T16:35:35;33.60;95.90
34061;DHT22;20336;-33.424;-70.638;2023-02-01T16:40:35;33.70;95.50
34061;DHT22;20336;-33.424;-70.638;2023-02-01T16:43:05;34.20;95.30
34061;DHT22;20336;-33.424;-70.638;2023-02-01T16:45:35;34.70;95.20
34061;DHT22;20336;-33.424;-70.638;2023-02-01T16:48:05;34.60;94.10
34061;DHT22;20336;-33.424;-70.638;2023-02-01T16:50:32;34.40;94.60
34061;DHT22;20336;-33.424;-70.638;2023-02-01T16:53:01;35.10;93.70
34061;DHT22;20336;-33.424;-70.638;2023-02-01T16:55:28;35.30;93.30
34061;DHT22;20336;-33.424;-70.638;2023-02-01T16:57:55;34.80;94.10
34061;DHT22;20336;-33.424;-70.638;2023-02-01T17:00:22;35.80;94.20
34061;DHT22;20336;-33.424;-70.638;2023-02-01T17:02:51;35.90;93.10
34061;DHT22;20336;-33.424;-70.638;2023-02-01T17:05:19;36.10;92.50
34061;DHT22;20336;-33.424;-70.638;2023-02-01T17:07:46;36.60;91.90
34061;DHT22;20336;-33.424;-70.638;2023-02-01T17:10:33;36.80;92.00
34061;DHT22;20336;-33.424;-70.638;2023-02-01T17:13:00;37.00;91.00
34061;DHT22;20336;-33.424;-70.638;2023-02-01T17:15:31;36.50;91.60
34061;DHT22;20336;-33.424;-70.638;2023-02-01T17:18:00;36.10;91.30
34061;DHT22;20336;-33.424;-70.638;2023-02-01T17:20:30;35.50;92.50
34061;DHT22;20336;-33.424;-70.638;2023-02-01T17:23:00;35.90;92.00
34061;DHT22;20336;-33.424;-70.638;2023-02-01T17:25:28;36.50;91.60
34061;DHT22;20336;-33.424;-70.638;2023-02-01T17:27:55;36.20;90.50
34061;DHT22;20336;-33.424;-70.638;2023-02-01T17:30:22;36.60;90.70
34061;DHT22;20336;-33.424;-70.638;2023-02-01T17:32:50;36.70;90.00
34061;DHT22;20336;-33.424;-70.638;2023-02-01T17:35:22;35.90;90.20
34061;DHT22;20336;-33.424;-70.638;2023-02-01T17:37:50;36.70;88.50
34061;DHT22;20336;-33.424;-70.638;2023-02-01T17:40:18;37.10;88.90
34061;DHT22;20336;-33.424;-70.638;2023-02-01T17:42:45;37.40;87.40
34061;DHT22;20336;-33.424;-70.638;2023-02-01T23:43:28;28.50;80.20
34061;DHT22;20336;-33.424;-70.638;2023-02-01T23:46:14;28.50;81.30
34061;DHT22;20336;-33.424;-70.638;2023-02-01T23:48:43;28.20;82.10
34061;DHT22;20336;-33.424;-70.638;2023-02-01T23:51:11;28.10;82.60
34061;DHT22;20336;-33.424;-70.638;2023-02-01T23:53:38;28.00;83.60
34061;DHT22;20336;-33.424;-70.638;2023-02-01T23:56:05;27.80;84.60
34061;DHT22;20336;-33.424;-70.638;2023-02-01T23:58:33;27.70;85.00
